createdAt,value
2018-04-01T00:00:01.097Z,100.00
2018-04-01T00:01:31.956Z,100.00
2018-04-01T00:02:59.048Z,100.00
2018-04-01T00:04:22.300Z,100.00
2018-04-01T00:05:53.370Z,100.00
2018-04-01T00:07:16.701Z,100.00
2018-04-01T00:08:43.821Z,100.00
2018-04-01T00:10:14.618Z,100.00
2018-04-01T00:11:41.474Z,100.00
2018-04-01T00:13:08.296Z,100.00
2018-04-01T00:14:35.258Z,100.00
2018-04-01T00:16:02.207Z,100.00
2018-04-01T00:17:29.382Z,100.00
2018-04-01T00:18:56.512Z,100.00
2018-04-01T00:20:23.453Z,100.00
2018-04-01T00:21:46.241Z,100.00
2018-04-01T00:23:13.120Z,100.00
2018-04-01T00:24:44.262Z,100.00
2018-04-01T00:26:11.167Z,100.00
2018-04-01T00:27:34.176Z,100.00
2018-04-01T00:29:01.086Z,100.00
2018-04-01T00:30:28.206Z,100.00
2018-04-01T00:31:59.268Z,100.00
2018-04-01T00:33:22.213Z,100.00
2018-04-01T00:34:49.075Z,100.00
2018-04-01T00:36:20.189Z,100.00
2018-04-01T00:37:47.249Z,100.00
2018-04-01T00:39:14.408Z,100.00
2018-04-01T00:40:37.272Z,100.00
2018-04-01T00:42:08.057Z,100.00
2018-04-01T00:43:35.362Z,100.00
2018-04-01T00:44:57.990Z,100.00
2018-04-01T00:46:24.807Z,100.00
2018-04-01T00:47:55.706Z,100.00
2018-04-01T00:49:22.950Z,100.00
2018-04-01T00:50:49.870Z,100.00
2018-04-01T00:52:16.984Z,100.00
2018-04-01T00:53:44.193Z,100.00
2018-04-01T00:55:11.134Z,100.00
2018-04-01T00:56:34.334Z,100.00
2018-04-01T00:58:05.268Z,100.00
2018-04-01T00:59:32.307Z,100.00
2018-04-01T01:00:55.203Z,100.00
2018-04-01T01:02:26.463Z,100.00
2018-04-01T01:03:53.587Z,100.00
2018-04-01T01:05:20.693Z,100.00
2018-04-01T01:06:43.524Z,100.00
2018-04-01T01:08:14.703Z,100.00
2018-04-01T01:09:41.706Z,100.00
2018-04-01T01:11:08.861Z,100.00
2018-04-01T01:12:35.899Z,100.00
2018-04-01T01:14:02.986Z,100.00
2018-04-01T01:15:30.020Z,100.00
2018-04-01T01:16:52.998Z,100.00
2018-04-01T01:18:24.372Z,100.00
2018-04-01T01:19:51.217Z,100.00
2018-04-01T01:21:14.062Z,100.00
2018-04-01T01:22:45.135Z,100.00
2018-04-01T01:24:11.963Z,100.00
2018-04-01T01:25:39.078Z,100.00
2018-04-01T01:27:06.074Z,100.00
2018-04-01T01:28:29.310Z,100.00
2018-04-01T01:30:00.432Z,100.00
2018-04-01T01:31:27.599Z,100.00
2018-04-01T01:32:54.836Z,100.00
2018-04-01T01:34:21.531Z,100.00
2018-04-01T01:35:48.643Z,100.00
2018-04-01T01:37:11.818Z,100.00
2018-04-01T01:38:43.064Z,100.00
2018-04-01T01:40:10.005Z,100.00
2018-04-01T01:41:36.876Z,100.00
2018-04-01T01:43:00.029Z,100.00
2018-04-01T01:44:31.060Z,100.00
2018-04-01T01:45:58.307Z,100.00
2018-04-01T01:47:21.421Z,100.00
2018-04-01T01:48:48.543Z,100.00
2018-04-01T01:50:15.626Z,100.00
2018-04-01T01:51:42.779Z,100.00
2018-04-01T01:53:13.944Z,100.00
2018-04-01T01:54:40.956Z,100.00
2018-04-01T01:56:03.978Z,100.00
2018-04-01T01:57:31.162Z,100.00
2018-04-01T01:59:02.203Z,100.00
2018-04-01T02:00:29.481Z,100.00
2018-04-01T02:01:56.725Z,100.00
2018-04-01T02:03:23.888Z,100.00
2018-04-01T02:04:50.863Z,100.00
2018-04-01T02:06:14.008Z,100.00
2018-04-01T02:07:40.704Z,100.00
2018-04-01T02:09:11.927Z,100.00
2018-04-01T02:10:38.949Z,100.00
2018-04-01T02:12:06.230Z,100.00
2018-04-01T02:13:29.326Z,100.00
2018-04-01T02:15:00.471Z,100.00
2018-04-01T02:16:27.663Z,100.00
2018-04-01T02:17:50.654Z,100.00
2018-04-01T02:19:21.882Z,100.00
2018-04-01T02:20:48.996Z,100.00
2018-04-01T02:22:15.840Z,100.00
2018-04-01T02:23:43.025Z,100.00
2018-04-01T02:25:09.773Z,100.00
2018-04-01T02:26:32.695Z,100.00
2018-04-01T02:27:59.858Z,100.00
2018-04-01T02:29:26.915Z,100.00
2018-04-01T02:30:54.007Z,100.00
2018-04-01T02:32:25.089Z,100.00
2018-04-01T02:33:48.364Z,100.00
2018-04-01T02:35:15.454Z,100.00
2018-04-01T02:36:42.378Z,100.00
2018-04-01T02:38:09.677Z,100.00
2018-04-01T02:39:40.774Z,100.00
2018-04-01T02:41:03.649Z,100.00
2018-04-01T02:42:34.837Z,100.00
2018-04-01T02:44:01.836Z,100.00
2018-04-01T02:45:29.086Z,100.00
2018-04-01T02:46:56.123Z,100.00
2018-04-01T02:48:19.311Z,100.00
2018-04-01T02:49:54.303Z,100.00
2018-04-01T02:51:13.283Z,100.00
2018-04-01T02:52:44.299Z,100.00
2018-04-01T02:54:07.298Z,100.00
2018-04-01T02:55:38.252Z,100.00
2018-04-01T02:57:05.511Z,100.00
2018-04-01T02:58:28.566Z,100.00
2018-04-01T02:59:59.723Z,100.00
2018-04-01T03:01:22.820Z,100.00
2018-04-01T03:02:53.978Z,100.00
2018-04-01T03:04:21.017Z,100.00
2018-04-01T03:05:44.262Z,100.00
2018-04-01T03:07:15.373Z,100.00
2018-04-01T03:08:38.492Z,100.00
2018-04-01T03:10:05.439Z,100.00
2018-04-01T03:11:32.420Z,100.00
2018-04-01T03:13:03.400Z,100.00
2018-04-01T03:14:30.443Z,100.00
2018-04-01T03:15:57.449Z,100.00
2018-04-01T03:17:24.648Z,100.00
2018-04-01T03:18:47.843Z,100.00
2018-04-01T03:20:18.743Z,100.00
2018-04-01T03:21:41.829Z,100.00
2018-04-01T03:23:08.942Z,100.00
2018-04-01T03:24:39.982Z,100.00
2018-04-01T03:26:06.957Z,100.00
2018-04-01T03:27:33.976Z,100.00
2018-04-01T03:28:57.096Z,100.00
2018-04-01T03:30:28.138Z,100.00
2018-04-01T03:31:55.414Z,100.00
2018-04-01T03:33:22.388Z,100.00
2018-04-01T03:34:45.674Z,100.00
2018-04-01T03:36:16.770Z,100.00
2018-04-01T03:37:43.726Z,100.00
2018-04-01T03:39:06.734Z,100.00
2018-04-01T03:40:37.963Z,100.00
2018-04-01T03:42:04.758Z,100.00
2018-04-01T03:43:27.687Z,100.00
2018-04-01T03:44:59.115Z,100.00
2018-04-01T03:46:26.180Z,100.00
2018-04-01T03:47:49.408Z,100.00
2018-04-01T03:49:16.235Z,100.00
2018-04-01T03:50:47.270Z,100.00
2018-04-01T03:52:10.274Z,100.00
2018-04-01T03:53:41.356Z,100.00
2018-04-01T03:55:04.326Z,100.00
2018-04-01T03:56:31.410Z,100.00
2018-04-01T03:58:02.578Z,100.00
2018-04-01T03:59:25.888Z,100.00
2018-04-01T04:00:56.739Z,100.00
2018-04-01T04:02:23.949Z,100.00
2018-04-01T04:03:46.898Z,100.00
2018-04-01T04:05:14.030Z,100.00
2018-04-01T04:06:41.086Z,100.00
2018-04-01T04:08:12.360Z,100.00
2018-04-01T04:09:35.391Z,100.00
2018-04-01T04:11:02.026Z,100.00
2018-04-01T04:12:29.274Z,100.00
2018-04-01T04:14:00.409Z,100.00
2018-04-01T04:15:27.604Z,100.00
2018-04-01T04:16:54.696Z,100.00
2018-04-01T04:18:17.744Z,100.00
2018-04-01T04:19:44.756Z,100.00
2018-04-01T04:21:15.891Z,100.00
2018-04-01T04:22:43.051Z,100.00
2018-04-01T04:24:10.156Z,100.00
2018-04-01T04:25:37.124Z,100.00
2018-04-01T04:27:00.359Z,100.00
2018-04-01T04:28:31.468Z,100.00
2018-04-01T04:29:54.813Z,100.00
2018-04-01T04:31:22.044Z,100.00
2018-04-01T04:32:53.311Z,100.00
2018-04-01T04:34:16.422Z,100.00
2018-04-01T04:35:43.602Z,100.00
2018-04-01T04:37:10.702Z,100.00
2018-04-01T04:38:41.883Z,100.00
2018-04-01T04:40:08.901Z,100.00
2018-04-01T04:41:35.724Z,100.00
2018-04-01T04:42:58.849Z,100.00
2018-04-01T04:44:26.091Z,100.00
2018-04-01T04:45:53.264Z,100.00
2018-04-01T04:47:24.424Z,100.00
2018-04-01T04:48:51.582Z,100.00
2018-04-01T04:50:14.535Z,100.00
2018-04-01T04:51:41.609Z,100.00
2018-04-01T04:53:08.590Z,100.00
2018-04-01T04:54:39.754Z,100.00
2018-04-01T04:56:02.713Z,100.00
2018-04-01T04:57:29.808Z,100.00
2018-04-01T04:59:01.014Z,100.00
2018-04-01T05:00:24.116Z,100.00
2018-04-01T05:01:55.314Z,100.00
2018-04-01T05:03:22.287Z,100.00
2018-04-01T05:04:45.512Z,100.00
2018-04-01T05:06:12.565Z,100.00
2018-04-01T05:07:43.594Z,100.00
2018-04-01T05:09:06.773Z,100.00
2018-04-01T05:10:33.950Z,100.00
2018-04-01T05:12:04.942Z,100.00
2018-04-01T05:13:28.066Z,100.00
2018-04-01T05:14:59.194Z,100.00
2018-04-01T05:16:26.228Z,100.00
2018-04-01T05:17:49.481Z,100.00
2018-04-01T05:19:20.634Z,100.00
2018-04-01T05:20:44.017Z,100.00
2018-04-01T05:22:11.153Z,100.00
2018-04-01T05:23:38.180Z,100.00
2018-04-01T05:25:05.296Z,100.00
2018-04-01T05:26:32.193Z,100.00
2018-04-01T05:28:03.476Z,100.00
2018-04-01T05:29:30.520Z,100.00
2018-04-01T05:30:53.603Z,100.00
2018-04-01T05:32:24.838Z,100.00
2018-04-01T05:33:51.848Z,100.00
2018-04-01T05:35:18.967Z,100.00
2018-04-01T05:36:46.194Z,100.00
2018-04-01T05:38:13.253Z,100.00
2018-04-01T05:39:40.477Z,100.00
2018-04-01T05:41:03.307Z,100.00
2018-04-01T05:42:34.594Z,100.00
2018-04-01T05:43:57.643Z,100.00
2018-04-01T05:45:29.716Z,100.00
2018-04-01T05:46:55.725Z,100.00
2018-04-01T05:48:18.877Z,100.00
2018-04-01T05:49:45.872Z,100.00
2018-04-01T05:51:12.815Z,100.00
2018-04-01T05:52:40.092Z,100.00
2018-04-01T05:54:10.916Z,100.00
2018-04-01T05:55:33.700Z,100.00
2018-04-01T05:57:04.641Z,100.00
2018-04-01T05:58:31.701Z,100.00
2018-04-01T05:59:54.946Z,100.00
2018-04-01T06:01:22.122Z,100.00
2018-04-01T06:02:53.424Z,100.00
2018-04-01T06:04:16.333Z,100.00
2018-04-01T06:05:43.472Z,100.00
2018-04-01T06:07:14.274Z,100.00
2018-04-01T06:08:41.509Z,100.00
2018-04-01T06:10:04.577Z,100.00
2018-04-01T06:11:31.801Z,100.00
2018-04-01T06:13:02.954Z,100.00
2018-04-01T06:14:29.831Z,100.00
2018-04-01T06:15:56.874Z,100.00
2018-04-01T06:17:23.900Z,100.00
2018-04-01T06:18:51.061Z,100.00
2018-04-01T06:20:17.827Z,100.00
2018-04-01T06:21:40.947Z,100.00
2018-04-01T06:23:11.893Z,100.00
2018-04-01T06:24:38.951Z,100.00
2018-04-01T06:26:06.035Z,100.00
2018-04-01T06:27:33.137Z,100.00
2018-04-01T06:28:56.338Z,100.00
2018-04-01T06:30:27.539Z,100.00
2018-04-01T06:31:50.850Z,100.00
2018-04-01T06:33:21.887Z,100.00
2018-04-01T06:34:48.991Z,100.00
2018-04-01T06:36:16.017Z,100.00
2018-04-01T06:37:43.186Z,100.00
2018-04-01T06:39:10.105Z,100.00
2018-04-01T06:40:37.030Z,100.00
2018-04-01T06:42:00.078Z,100.00
2018-04-01T06:43:27.187Z,100.00
2018-04-01T06:44:58.257Z,100.00
2018-04-01T06:46:25.223Z,100.00
2018-04-01T06:47:52.027Z,100.00
2018-04-01T06:49:15.096Z,100.00
2018-04-01T06:50:46.146Z,100.00
2018-04-01T06:52:13.350Z,100.00
2018-04-01T06:53:40.523Z,100.00
2018-04-01T06:55:03.297Z,100.00
2018-04-01T06:56:30.549Z,100.00
2018-04-01T06:57:57.904Z,100.00
2018-04-01T06:59:28.682Z,100.00
2018-04-01T07:00:56.012Z,99.92
2018-04-01T07:02:19.098Z,99.60
2018-04-01T07:03:46.131Z,99.36
2018-04-01T07:05:17.499Z,99.54
2018-04-01T07:06:44.284Z,99.22
2018-04-01T07:08:11.132Z,99.60
2018-04-01T07:09:38.006Z,99.13
2018-04-01T07:11:01.245Z,99.55
2018-04-01T07:12:28.416Z,99.30
2018-04-01T07:13:59.464Z,99.34
2018-04-01T07:15:26.680Z,99.20
2018-04-01T07:16:53.647Z,99.25
2018-04-01T07:18:16.871Z,99.05
2018-04-01T07:19:43.928Z,98.92
2018-04-01T07:21:14.913Z,99.05
2018-04-01T07:22:38.031Z,99.08
2018-04-01T07:24:09.020Z,98.95
2018-04-01T07:25:35.993Z,98.61
2018-04-01T07:27:03.078Z,98.53
2018-04-01T07:28:29.838Z,97.68
2018-04-01T07:29:57.090Z,97.83
2018-04-01T07:31:20.134Z,98.06
2018-04-01T07:32:47.356Z,98.26
2018-04-01T07:34:18.431Z,97.98
2018-04-01T07:35:45.517Z,98.33
2018-04-01T07:37:12.436Z,97.71
2018-04-01T07:38:35.138Z,97.69
2018-04-01T07:40:06.417Z,98.12
2018-04-01T07:41:34.650Z,98.07
2018-04-01T07:43:00.717Z,97.71
2018-04-01T07:44:27.646Z,97.50
2018-04-01T07:45:50.746Z,97.53
2018-04-01T07:47:17.944Z,98.31
2018-04-01T07:48:49.195Z,98.18
2018-04-01T07:50:16.213Z,98.26
2018-04-01T07:51:43.407Z,97.96
2018-04-01T07:53:06.513Z,97.70
2018-04-01T07:54:37.644Z,97.10
2018-04-01T07:56:00.781Z,97.79
2018-04-01T07:57:27.747Z,97.04
2018-04-01T07:58:54.639Z,97.70
2018-04-01T08:00:21.846Z,97.48
2018-04-01T08:01:53.190Z,97.68
2018-04-01T08:03:20.184Z,97.10
2018-04-01T08:04:47.470Z,96.93
2018-04-01T08:06:14.591Z,97.18
2018-04-01T08:07:41.381Z,96.67
2018-04-01T08:09:08.310Z,96.90
2018-04-01T08:10:31.444Z,95.91
2018-04-01T08:12:02.303Z,96.41
2018-04-01T08:13:29.423Z,96.25
2018-04-01T08:14:56.593Z,96.12
2018-04-01T08:16:23.704Z,95.89
2018-04-01T08:17:51.083Z,95.72
2018-04-01T08:19:14.386Z,95.59
2018-04-01T08:20:41.546Z,95.16
2018-04-01T08:22:12.485Z,95.45
2018-04-01T08:23:39.580Z,95.44
2018-04-01T08:25:06.451Z,95.39
2018-04-01T08:26:33.457Z,95.30
2018-04-01T08:28:00.492Z,94.79
2018-04-01T08:29:27.531Z,94.41
2018-04-01T08:30:54.570Z,94.68
2018-04-01T08:32:21.251Z,94.82
2018-04-01T08:33:48.525Z,94.84
2018-04-01T08:35:11.750Z,94.64
2018-04-01T08:36:42.973Z,94.28
2018-04-01T08:38:06.090Z,94.34
2018-04-01T08:39:33.138Z,94.51
2018-04-01T08:41:09.399Z,94.38
2018-04-01T08:42:31.362Z,94.09
2018-04-01T08:43:58.352Z,94.14
2018-04-01T08:45:25.266Z,94.11
2018-04-01T08:46:48.358Z,93.75
2018-04-01T08:48:19.299Z,93.85
2018-04-01T08:49:46.131Z,93.45
2018-04-01T08:51:09.175Z,93.38
2018-04-01T08:52:36.312Z,93.16
2018-04-01T08:54:03.431Z,93.40
2018-04-01T08:55:34.739Z,93.75
2018-04-01T08:57:01.877Z,93.81
2018-04-01T08:58:28.678Z,93.23
2018-04-01T08:59:51.956Z,93.24
2018-04-01T09:01:23.281Z,94.07
2018-04-01T09:02:50.306Z,93.67
2018-04-01T09:04:17.409Z,93.90
2018-04-01T09:05:44.474Z,94.09
2018-04-01T09:07:11.705Z,93.88
2018-04-01T09:08:38.926Z,93.71
2018-04-01T09:10:01.973Z,94.32
2018-04-01T09:11:33.118Z,94.41
2018-04-01T09:12:56.184Z,93.72
2018-04-01T09:14:27.218Z,94.29
2018-04-01T09:15:54.546Z,94.37
2018-04-01T09:17:21.711Z,94.37
2018-04-01T09:18:48.746Z,94.38
2018-04-01T09:20:15.752Z,94.65
2018-04-01T09:21:42.916Z,94.64
2018-04-01T09:23:05.967Z,94.47
2018-04-01T09:24:32.952Z,93.83
2018-04-01T09:26:04.109Z,93.99
2018-04-01T09:27:27.244Z,94.04
2018-04-01T09:28:58.342Z,94.54
2018-04-01T09:30:25.510Z,94.36
2018-04-01T09:31:48.507Z,94.42
2018-04-01T09:33:15.748Z,94.02
2018-04-01T09:34:46.909Z,94.72
2018-04-01T09:36:10.042Z,94.26
2018-04-01T09:37:37.274Z,93.87
2018-04-01T09:39:04.377Z,94.11
2018-04-01T09:40:35.572Z,93.39
2018-04-01T09:41:58.739Z,93.36
2018-04-01T09:43:29.894Z,93.24
2018-04-01T09:44:56.959Z,93.95
2018-04-01T09:46:20.131Z,94.16
2018-04-01T09:47:47.323Z,94.01
2018-04-01T09:49:14.409Z,93.38
2018-04-01T09:50:45.468Z,93.75
2018-04-01T09:52:12.616Z,93.71
2018-04-01T09:53:35.773Z,93.61
2018-04-01T09:55:02.665Z,93.31
2018-04-01T09:56:29.812Z,93.01
2018-04-01T09:57:57.088Z,93.60
2018-04-01T09:59:24.090Z,93.52
2018-04-01T10:00:51.148Z,93.14
2018-04-01T10:02:18.209Z,92.70
2018-04-01T10:03:45.085Z,93.24
2018-04-01T10:05:15.908Z,93.28
2018-04-01T10:06:39.040Z,93.46
2018-04-01T10:08:10.228Z,93.12
2018-04-01T10:09:37.336Z,92.50
2018-04-01T10:11:04.460Z,92.86
2018-04-01T10:12:31.523Z,92.10
2018-04-01T10:13:58.711Z,92.56
2018-04-01T10:15:21.905Z,93.08
2018-04-01T10:16:53.093Z,92.95
2018-04-01T10:18:16.318Z,91.74
2018-04-01T10:19:43.402Z,91.80
2018-04-01T10:21:10.573Z,91.87
2018-04-01T10:22:41.866Z,91.39
2018-04-01T10:24:04.920Z,91.54
2018-04-01T10:25:32.155Z,90.81
2018-04-01T10:26:59.508Z,91.31
2018-04-01T10:28:26.720Z,91.38
2018-04-01T10:29:57.989Z,91.78
2018-04-01T10:31:25.154Z,91.22
2018-04-01T10:32:48.447Z,91.10
2018-04-01T10:34:19.667Z,90.99
2018-04-01T10:35:42.790Z,91.19
2018-04-01T10:37:13.982Z,91.64
2018-04-01T10:38:41.050Z,91.49
2018-04-01T10:40:08.135Z,91.35
2018-04-01T10:41:35.438Z,91.67
2018-04-01T10:43:02.810Z,91.30
2018-04-01T10:44:29.876Z,91.21
2018-04-01T10:45:56.999Z,90.96
2018-04-01T10:47:24.235Z,90.89
2018-04-01T10:48:47.346Z,90.29
2018-04-01T10:50:18.375Z,90.45
2018-04-01T10:51:45.539Z,89.91
2018-04-01T10:53:08.573Z,89.72
2018-04-01T10:54:35.717Z,89.74
2018-04-01T10:56:02.711Z,89.98
2018-04-01T10:57:33.824Z,89.63
2018-04-01T10:59:00.965Z,89.22
2018-04-01T11:00:28.240Z,89.68
2018-04-01T11:01:51.625Z,89.35
2018-04-01T11:03:22.903Z,89.31
2018-04-01T11:04:49.884Z,89.63
2018-04-01T11:06:17.096Z,89.83
2018-04-01T11:07:44.398Z,89.10
2018-04-01T11:09:07.451Z,88.53
2018-04-01T11:10:34.431Z,89.28
2018-04-01T11:12:01.637Z,89.11
2018-04-01T11:13:32.778Z,88.76
2018-04-01T11:14:56.213Z,89.17
2018-04-01T11:16:27.527Z,88.76
2018-04-01T11:17:54.794Z,88.18
2018-04-01T11:19:21.711Z,88.90
2018-04-01T11:20:45.014Z,88.89
2018-04-01T11:22:16.199Z,88.60
2018-04-01T11:23:39.442Z,88.81
2018-04-01T11:25:10.616Z,88.66
2018-04-01T11:26:37.692Z,88.87
2018-04-01T11:28:04.827Z,87.98
2018-04-01T11:29:32.126Z,88.56
2018-04-01T11:30:59.396Z,88.28
2018-04-01T11:32:26.814Z,88.34
2018-04-01T11:33:50.028Z,87.94
2018-04-01T11:35:21.162Z,88.94
2018-04-01T11:36:44.264Z,88.29
2018-04-01T11:38:15.429Z,88.18
2018-04-01T11:39:42.695Z,88.16
2018-04-01T11:41:05.863Z,87.94
2018-04-01T11:42:36.817Z,87.94
2018-04-01T11:44:00.054Z,88.04
2018-04-01T11:45:27.257Z,87.56
2018-04-01T11:46:58.437Z,87.83
2018-04-01T11:48:25.376Z,87.73
2018-04-01T11:49:52.564Z,87.52
2018-04-01T11:51:15.901Z,87.38
2018-04-01T11:52:47.107Z,87.06
2018-04-01T11:54:14.251Z,87.04
2018-04-01T11:55:37.384Z,87.34
2018-04-01T11:57:04.542Z,87.05
2018-04-01T11:58:35.645Z,87.51
2018-04-01T12:00:02.775Z,87.26
2018-04-01T12:01:25.815Z,87.73
2018-04-01T12:02:52.948Z,88.11
2018-04-01T12:04:24.231Z,88.47
2018-04-01T12:05:51.198Z,88.80
2018-04-01T12:07:14.428Z,88.86
2018-04-01T12:08:45.557Z,88.86
2018-04-01T12:10:12.643Z,88.94
2018-04-01T12:11:35.684Z,89.05
2018-04-01T12:13:06.726Z,89.20
2018-04-01T12:14:29.841Z,88.90
2018-04-01T12:16:01.110Z,88.33
2018-04-01T12:17:24.373Z,88.42
2018-04-01T12:18:55.565Z,88.50
2018-04-01T12:20:22.692Z,89.17
2018-04-01T12:21:46.006Z,88.85
2018-04-01T12:23:17.290Z,89.36
2018-04-01T12:24:44.401Z,89.51
2018-04-01T12:26:07.566Z,89.77
2018-04-01T12:27:38.653Z,89.31
2018-04-01T12:29:01.959Z,89.70
2018-04-01T12:30:33.010Z,89.73
2018-04-01T12:31:56.208Z,89.81
2018-04-01T12:33:27.203Z,89.45
2018-04-01T12:34:54.408Z,89.49
2018-04-01T12:36:21.635Z,89.53
2018-04-01T12:37:48.996Z,89.46
2018-04-01T12:39:16.171Z,89.08
2018-04-01T12:40:39.440Z,89.20
2018-04-01T12:42:06.618Z,88.91
2018-04-01T12:43:37.687Z,88.82
2018-04-01T12:45:00.769Z,89.12
2018-04-01T12:46:27.910Z,89.11
2018-04-01T12:47:55.041Z,88.48
2018-04-01T12:49:26.113Z,88.86
2018-04-01T12:50:49.231Z,89.44
2018-04-01T12:52:16.441Z,89.81
2018-04-01T12:53:47.455Z,89.96
2018-04-01T12:55:10.665Z,89.94
2018-04-01T12:56:37.813Z,90.19
2018-04-01T12:58:04.950Z,90.07
2018-04-01T12:59:36.198Z,90.12
2018-04-01T13:00:59.484Z,89.93
2018-04-01T13:02:30.450Z,90.48
2018-04-01T13:03:57.613Z,90.66
2018-04-01T13:05:24.888Z,90.58
2018-04-01T13:06:47.849Z,89.56
2018-04-01T13:08:19.042Z,90.75
2018-04-01T13:09:46.141Z,90.31
2018-04-01T13:11:09.174Z,89.56
2018-04-01T13:12:40.338Z,89.23
2018-04-01T13:14:03.276Z,89.20
2018-04-01T13:15:34.319Z,89.38
2018-04-01T13:17:01.261Z,89.64
2018-04-01T13:18:24.343Z,90.22
2018-04-01T13:19:55.521Z,90.15
2018-04-01T13:21:18.696Z,89.82
2018-04-01T13:22:45.857Z,90.29
2018-04-01T13:24:13.233Z,90.06
2018-04-01T13:25:40.268Z,89.43
2018-04-01T13:27:11.057Z,88.84
2018-04-01T13:28:38.463Z,89.04
2018-04-01T13:30:05.489Z,89.22
2018-04-01T13:31:28.530Z,89.16
2018-04-01T13:32:55.807Z,89.55
2018-04-01T13:34:26.858Z,89.28
2018-04-01T13:35:53.762Z,89.51
2018-04-01T13:37:20.948Z,89.88
2018-04-01T13:38:48.446Z,89.67
2018-04-01T13:40:11.320Z,89.53
2018-04-01T13:41:38.364Z,89.21
2018-04-01T13:43:05.636Z,89.81
2018-04-01T13:44:36.500Z,90.22
2018-04-01T13:45:59.849Z,89.90
2018-04-01T13:47:27.006Z,89.58
2018-04-01T13:48:58.389Z,89.89
2018-04-01T13:50:21.462Z,90.08
2018-04-01T13:51:52.672Z,89.92
2018-04-01T13:53:19.959Z,89.13
2018-04-01T13:54:43.103Z,89.61
2018-04-01T13:56:10.302Z,89.39
2018-04-01T13:57:37.466Z,89.94
2018-04-01T13:59:04.566Z,90.50
2018-04-01T14:00:35.795Z,90.35
2018-04-01T14:01:58.980Z,89.36
2018-04-01T14:03:30.090Z,89.16
2018-04-01T14:04:57.268Z,89.85
2018-04-01T14:06:24.381Z,89.86
2018-04-01T14:07:51.774Z,90.19
2018-04-01T14:09:14.901Z,90.06
2018-04-01T14:10:42.117Z,89.73
2018-04-01T14:12:09.379Z,90.10
2018-04-01T14:13:40.383Z,90.18
2018-04-01T14:15:07.788Z,89.98
2018-04-01T14:16:35.052Z,90.68
2018-04-01T14:17:58.221Z,90.26
2018-04-01T14:19:25.574Z,90.35
2018-04-01T14:20:52.628Z,90.54
2018-04-01T14:22:23.890Z,90.72
2018-04-01T14:23:46.880Z,90.48
2018-04-01T14:25:13.935Z,90.50
2018-04-01T14:26:41.058Z,90.57
2018-04-01T14:28:12.173Z,90.15
2018-04-01T14:29:39.256Z,90.83
2018-04-01T14:31:02.498Z,90.95
2018-04-01T14:32:33.728Z,90.63
2018-04-01T14:34:00.670Z,91.08
2018-04-01T14:35:24.044Z,91.00
2018-04-01T14:36:55.290Z,90.31
2018-04-01T14:38:22.578Z,90.40
2018-04-01T14:39:45.784Z,90.09
2018-04-01T14:41:12.719Z,90.11
2018-04-01T14:42:39.928Z,90.48
2018-04-01T14:44:11.127Z,90.36
2018-04-01T14:45:34.224Z,90.26
2018-04-01T14:47:01.539Z,89.99
2018-04-01T14:48:28.647Z,89.67
2018-04-01T14:49:55.638Z,89.46
2018-04-01T14:51:26.718Z,89.79
2018-04-01T14:52:53.870Z,89.94
2018-04-01T14:54:17.166Z,89.76
2018-04-01T14:55:44.321Z,89.45
2018-04-01T14:57:11.455Z,89.66
2018-04-01T14:58:38.570Z,90.01
2018-04-01T15:00:05.793Z,89.96
2018-04-01T15:01:36.945Z,89.87
2018-04-01T15:03:00.050Z,90.00
2018-04-01T15:04:27.212Z,89.55
2018-04-01T15:05:58.371Z,89.64
2018-04-01T15:07:21.730Z,90.32
2018-04-01T15:08:48.830Z,90.15
2018-04-01T15:10:15.909Z,90.43
2018-04-01T15:11:43.186Z,90.45
2018-04-01T15:13:14.044Z,90.34
2018-04-01T15:14:41.192Z,90.07
2018-04-01T15:16:08.360Z,90.24
2018-04-01T15:17:31.626Z,90.41
2018-04-01T15:19:03.000Z,90.45
2018-04-01T15:20:30.214Z,90.39
2018-04-01T15:21:52.791Z,90.29
2018-04-01T15:23:19.939Z,89.66
2018-04-01T15:24:47.260Z,89.87
2018-04-01T15:26:14.293Z,90.20
2018-04-01T15:27:45.539Z,89.77
2018-04-01T15:29:12.424Z,89.89
2018-04-01T15:30:39.515Z,89.58
2018-04-01T15:32:06.387Z,89.56
2018-04-01T15:33:29.600Z,89.82
2018-04-01T15:35:00.797Z,90.70
2018-04-01T15:36:23.752Z,90.53
2018-04-01T15:37:51.188Z,90.47
2018-04-01T15:39:22.271Z,91.52
2018-04-01T15:40:45.278Z,90.93
2018-04-01T15:42:12.358Z,91.31
2018-04-01T15:43:43.506Z,91.01
2018-04-01T15:45:10.583Z,90.96
2018-04-01T15:46:37.786Z,91.06
2018-04-01T15:48:01.099Z,91.40
2018-04-01T15:49:32.190Z,91.58
2018-04-01T15:50:55.280Z,91.42
2018-04-01T15:52:22.428Z,91.05
2018-04-01T15:53:49.538Z,90.90
2018-04-01T15:55:16.365Z,91.03
2018-04-01T15:56:43.495Z,91.07
2018-04-01T15:58:14.700Z,90.88
2018-04-01T15:59:37.776Z,91.38
2018-04-01T16:01:08.843Z,91.44
2018-04-01T16:02:35.864Z,91.67
2018-04-01T16:04:03.170Z,91.14
2018-04-01T16:05:26.350Z,91.48
2018-04-01T16:06:53.491Z,91.48
2018-04-01T16:08:20.674Z,91.41
2018-04-01T16:09:47.795Z,91.48
2018-04-01T16:11:14.963Z,90.95
2018-04-01T16:12:42.250Z,90.49
2018-04-01T16:14:09.442Z,90.38
2018-04-01T16:15:36.494Z,90.97
2018-04-01T16:17:03.690Z,90.94
2018-04-01T16:18:34.902Z,91.28
2018-04-01T16:20:02.182Z,91.32
2018-04-01T16:21:25.423Z,91.78
2018-04-01T16:22:56.564Z,91.79
2018-04-01T16:24:19.783Z,91.93
2018-04-01T16:25:46.983Z,91.53
2018-04-01T16:27:14.315Z,91.17
2018-04-01T16:28:41.537Z,91.59
2018-04-01T16:30:08.822Z,91.29
2018-04-01T16:31:39.828Z,91.64
2018-04-01T16:33:02.913Z,91.27
2018-04-01T16:34:34.112Z,90.94
2018-04-01T16:36:01.196Z,91.50
2018-04-01T16:37:24.360Z,91.13
2018-04-01T16:38:51.494Z,91.83
2018-04-01T16:40:22.770Z,91.98
2018-04-01T16:41:46.002Z,91.44
2018-04-01T16:43:13.213Z,91.07
2018-04-01T16:44:44.258Z,90.64
2018-04-01T16:46:07.464Z,91.11
2018-04-01T16:47:34.573Z,90.89
2018-04-01T16:49:05.842Z,90.91
2018-04-01T16:50:33.138Z,90.67
2018-04-01T16:51:56.289Z,90.86
2018-04-01T16:53:23.440Z,91.10
2018-04-01T16:54:54.593Z,91.27
2018-04-01T16:56:21.509Z,90.99
2018-04-01T16:57:48.694Z,91.31
2018-04-01T16:59:15.876Z,91.01
2018-04-01T17:00:38.971Z,91.25
2018-04-01T17:02:10.095Z,91.02
2018-04-01T17:03:37.182Z,91.05
2018-04-01T17:05:00.381Z,90.79
2018-04-01T17:06:31.797Z,91.17
2018-04-01T17:07:58.918Z,91.00
2018-04-01T17:09:25.968Z,91.22
2018-04-01T17:10:49.003Z,90.90
2018-04-01T17:12:19.987Z,90.76
2018-04-01T17:13:43.046Z,90.90
2018-04-01T17:15:14.334Z,90.55
2018-04-01T17:16:41.320Z,90.69
2018-04-01T17:18:08.376Z,90.86
2018-04-01T17:19:31.636Z,90.55
2018-04-01T17:21:02.813Z,90.50
2018-04-01T17:22:25.934Z,90.27
2018-04-01T17:23:57.256Z,90.64
2018-04-01T17:25:20.440Z,90.59
2018-04-01T17:26:47.458Z,90.67
2018-04-01T17:28:14.682Z,90.44
2018-04-01T17:29:45.850Z,90.37
2018-04-01T17:31:08.965Z,90.58
2018-04-01T17:32:36.021Z,90.23
2018-04-01T17:34:03.081Z,90.46
2018-04-01T17:35:34.003Z,90.53
2018-04-01T17:36:57.273Z,90.00
2018-04-01T17:38:28.428Z,90.06
2018-04-01T17:39:55.695Z,90.14
2018-04-01T17:41:22.804Z,90.26
2018-04-01T17:42:45.989Z,90.20
2018-04-01T17:44:17.174Z,89.95
2018-04-01T17:45:40.412Z,90.18
2018-04-01T17:47:11.504Z,90.40
2018-04-01T17:48:38.444Z,89.84
2018-04-01T17:50:05.656Z,90.15
2018-04-01T17:51:28.929Z,90.46
2018-04-01T17:53:00.159Z,90.25
2018-04-01T17:54:27.351Z,90.14
2018-04-01T17:55:50.630Z,90.55
2018-04-01T17:57:17.740Z,90.26
2018-04-01T17:58:44.707Z,90.88
2018-04-01T18:00:15.739Z,90.58
2018-04-01T18:01:42.970Z,90.97
2018-04-01T18:03:06.219Z,90.71
2018-04-01T18:04:37.259Z,90.80
2018-04-01T18:06:00.523Z,90.36
2018-04-01T18:07:31.687Z,90.54
2018-04-01T18:08:54.000Z,90.65
2018-04-01T18:10:21.240Z,90.50
2018-04-01T18:11:52.413Z,91.15
2018-04-01T18:13:19.539Z,91.03
2018-04-01T18:14:46.763Z,90.86
2018-04-01T18:16:10.044Z,90.97
2018-04-01T18:17:41.071Z,90.70
2018-04-01T18:19:03.981Z,90.42
2018-04-01T18:20:31.090Z,90.69
2018-04-01T18:22:02.297Z,90.53
2018-04-01T18:23:29.500Z,90.45
2018-04-01T18:24:52.737Z,90.63
2018-04-01T18:26:23.912Z,90.68
2018-04-01T18:27:47.033Z,90.58